Time;durP1;ratioP1;P1;durP2;ratioP2;P2;SDS_P1;SDS_P2;PMS_P1;PMS_P2;Temp;Humidity;BMP_temperature;BMP_pressure;BME280_temperature;BME280_humidity;BME280_pressure;Samples;Min_cycle;Max_cycle;Signal;HPM_P1;HPM_P2
2024/01/28 00:00:38;;;;;;;3.65;2.10;;;;;;;0.56;93.55;93959.63;5074019;28;20397;-71
2024/01/28 00:03:05;;;;;;;5.10;2.35;;;;;;;0.66;94.23;93977.34;5068721;28;20047;-71
2024/01/28 00:05:32;;;;;;;6.05;2.30;;;;;;;0.50;93.78;93978.63;5070866;28;20049;-69
2024/01/28 00:08:00;;;;;;;3.83;2.33;;;;;;;0.57;94.00;93968.00;5073374;28;20499;-69
2024/01/28 00:10:27;;;;;;;4.93;2.20;;;;;;;0.62;94.91;93978.53;5075835;28;20045;-69
2024/01/28 00:12:54;;;;;;;6.20;2.58;;;;;;;0.50;95.76;93982.88;5072645;28;20047;-69
2024/01/28 00:15:20;;;;;;;6.18;2.15;;;;;;;0.55;96.17;93987.56;5068347;28;20060;-69
2024/01/28 00:17:49;;;;;;;4.53;2.33;;;;;;;0.63;97.00;93978.41;5074031;28;20045;-71
2024/01/28 00:20:16;;;;;;;6.88;2.53;;;;;;;0.47;97.61;93995.78;5078680;28;20070;-71
2024/01/28 00:22:43;;;;;;;9.77;4.00;;;;;;;0.59;97.48;93992.22;5074325;28;20048;-69
2024/01/28 00:25:10;;;;;;;16.73;6.55;;;;;;;0.64;96.79;93997.69;5078097;28;20052;-69
2024/01/28 00:27:37;;;;;;;14.80;5.07;;;;;;;0.56;96.83;94004.31;5086464;28;20044;-69
2024/01/28 00:30:05;;;;;;;13.55;7.15;;;;;;;0.56;97.42;94006.84;5077516;28;20052;-69
2024/01/28 00:32:32;;;;;;;6.32;2.85;;;;;;;0.60;98.68;94001.41;5074015;28;20052;-69
2024/01/28 00:35:00;;;;;;;9.02;5.60;;;;;;;0.63;99.33;94008.75;5081894;28;20048;-69
2024/01/28 00:37:27;;;;;;;5.90;3.10;;;;;;;0.52;99.04;94008.84;5082893;28;20416;-69
2024/01/28 00:39:54;;;;;;;7.57;2.97;;;;;;;0.62;99.25;94007.16;5073915;28;20040;-69
2024/01/28 00:42:21;;;;;;;15.43;6.22;;;;;;;0.65;99.99;94013.69;5070780;28;20049;-69
2024/01/28 00:44:48;;;;;;;8.88;4.03;;;;;;;0.41;99.45;94006.41;5073278;28;20043;-69
2024/01/28 00:47:15;;;;;;;6.38;2.75;;;;;;;0.56;100.00;94010.19;5072236;28;21046;-69
2024/01/28 00:49:42;;;;;;;6.43;3.58;;;;;;;0.55;100.00;94016.16;5073423;28;20538;-69
2024/01/28 00:52:10;;;;;;;7.55;3.83;;;;;;;0.61;100.00;94019.91;5074544;28;20419;-69
2024/01/28 00:54:37;;;;;;;6.07;3.25;;;;;;;0.62;100.00;94016.47;5074438;28;20048;-69
2024/01/28 00:57:04;;;;;;;5.95;3.58;;;;;;;0.58;100.00;94003.28;5080801;28;20071;-69
2024/01/28 00:59:31;;;;;;;6.47;2.92;;;;;;;0.68;100.00;94000.75;5079796;28;20428;-69
2024/01/28 01:01:58;;;;;;;5.60;3.65;;;;;;;0.54;100.00;94009.50;5075360;28;20094;-69
2024/01/28 01:04:25;;;;;;;4.55;3.25;;;;;;;0.42;100.00;94002.94;5080562;28;20044;-69
2024/01/28 01:06:52;;;;;;;7.22;3.72;;;;;;;0.42;100.00;94013.88;5079121;28;20047;-69
2024/01/28 01:09:20;;;;;;;7.15;3.50;;;;;;;0.35;100.00;94010.22;5074303;28;20132;-69
2024/01/28 01:11:47;;;;;;;6.68;3.47;;;;;;;0.50;100.00;94018.25;5073173;28;20054;-69
2024/01/28 01:14:14;;;;;;;6.78;3.50;;;;;;;0.63;100.00;94020.56;5081304;28;20087;-69
2024/01/28 01:16:41;;;;;;;7.72;3.28;;;;;;;0.36;100.00;94017.69;5072306;28;20048;-69
2024/01/28 01:19:08;;;;;;;9.25;3.60;;;;;;;0.38;100.00;94007.47;5076753;28;20044;-70
2024/01/28 01:21:35;;;;;;;7.05;3.20;;;;;;;0.60;100.00;94008.22;5075914;28;20055;-70
2024/01/28 01:24:02;;;;;;;7.22;3.40;;;;;;;0.51;100.00;94017.38;5079164;28;20141;-69
2024/01/28 01:26:31;;;;;;;5.93;3.15;;;;;;;0.60;100.00;94013.25;5072422;28;20062;-69
2024/01/28 01:28:58;;;;;;;8.73;3.58;;;;;;;0.42;100.00;94008.00;5074031;28;21076;-69
2024/01/28 01:31:25;;;;;;;6.32;3.15;;;;;;;0.42;100.00;94013.06;5071206;28;20051;-69
2024/01/28 01:33:52;;;;;;;4.68;3.08;;;;;;;0.40;100.00;94005.59;5082380;28;20085;-69
2024/01/28 01:36:19;;;;;;;6.05;3.55;;;;;;;0.26;100.00;94022.72;5072061;28;20403;-69
2024/01/28 01:38:47;;;;;;;7.25;3.40;;;;;;;0.47;100.00;94016.00;5081777;28;20040;-69
2024/01/28 01:41:14;;;;;;;8.73;3.83;;;;;;;0.54;100.00;94017.09;5073492;28;20590;-69
2024/01/28 01:43:42;;;;;;;8.13;3.70;;;;;;;0.56;100.00;94020.31;5069839;28;20076;-69
2024/01/28 01:46:11;;;;;;;7.28;4.00;;;;;;;0.52;100.00;94018.97;5077462;28;20041;-69
2024/01/28 01:48:39;;;;;;;9.80;4.10;;;;;;;0.51;100.00;94013.09;5074632;28;20043;-69
2024/01/28 01:51:07;;;;;;;7.05;3.42;;;;;;;0.49;100.00;94012.44;5070564;28;20056;-69
2024/01/28 01:53:35;;;;;;;4.70;2.83;;;;;;;0.53;100.00;94018.03;5074158;28;20172;-69
2024/01/28 01:56:02;;;;;;;7.15;3.10;;;;;;;0.22;100.00;93998.63;5069966;28;20052;-69
2024/01/28 01:58:30;;;;;;;5.38;2.90;;;;;;;0.31;100.00;94014.75;5069018;28;20045;-69
2024/01/28 02:01:00;;;;;;;6.03;3.60;;;;;;;0.38;100.00;94002.41;5075035;28;20135;-69
2024/01/28 02:03:28;;;;;;;7.45;3.47;;;;;;;0.41;100.00;94011.47;5069916;28;20055;-69
2024/01/28 02:05:55;;;;;;;6.53;3.33;;;;;;;0.37;100.00;94015.97;5072948;28;20055;-69
2024/01/28 02:08:22;;;;;;;5.47;3.58;;;;;;;0.56;100.00;94006.84;5071923;28;20090;-69
2024/01/28 02:10:50;;;;;;;5.35;3.05;;;;;;;0.43;100.00;94009.59;5069421;28;20094;-69
2024/01/28 02:13:17;;;;;;;6.70;3.50;;;;;;;0.42;100.00;94005.47;5075583;28;20050;-69
2024/01/28 02:15:44;;;;;;;5.60;3.17;;;;;;;0.44;100.00;94008.66;5067738;28;20412;-69
2024/01/28 02:18:12;;;;;;;7.07;3.40;;;;;;;0.48;100.00;94013.38;5071975;28;20063;-69
2024/01/28 02:20:39;;;;;;;5.85;3.75;;;;;;;0.44;100.00;94018.78;5068517;28;20078;-69
2024/01/28 02:23:06;;;;;;;5.88;3.08;;;;;;;0.30;100.00;94017.38;5072056;28;20054;-68
2024/01/28 02:25:35;;;;;;;6.78;3.92;;;;;;;0.22;100.00;94020.53;5075347;28;20728;-68
2024/01/28 02:28:02;;;;;;;7.05;3.70;;;;;;;0.15;100.00;94009.34;5071964;28;20058;-69
2024/01/28 02:30:29;;;;;;;8.93;3.63;;;;;;;0.10;100.00;94015.56;5078509;28;20054;-69
2024/01/28 02:32:55;;;;;;;7.15;3.58;;;;;;;0.13;100.00;94022.09;5071713;28;20087;-69
2024/01/28 02:35:22;;;;;;;7.43;3.60;;;;;;;0.07;100.00;94015.84;5075036;28;20048;-69
2024/01/28 02:37:49;;;;;;;5.70;3.58;;;;;;;0.07;100.00;94023.41;5069447;28;20838;-72
2024/01/28 02:40:16;;;;;;;6.93;3.58;;;;;;;0.31;100.00;94027.38;5075544;28;20101;-72
2024/01/28 02:42:45;;;;;;;10.82;4.35;;;;;;;0.18;100.00;94032.63;5076647;28;20978;-71
2024/01/28 02:45:12;;;;;;;7.72;3.42;;;;;;;0.17;100.00;94031.03;5074460;28;20044;-71
2024/01/28 02:47:38;;;;;;;5.00;3.38;;;;;;;0.14;100.00;94036.34;5070026;28;20054;-71
2024/01/28 02:50:07;;;;;;;6.70;3.67;;;;;;;0.07;100.00;94036.06;5077713;28;20048;-71
2024/01/28 02:52:34;;;;;;;6.15;3.47;;;;;;;-0.01;100.00;94034.13;5068687;28;20130;-71
2024/01/28 02:55:01;;;;;;;8.32;3.55;;;;;;;-0.04;100.00;94036.13;5071612;28;20045;-71
2024/01/28 02:57:28;;;;;;;5.95;3.63;;;;;;;0.08;100.00;94041.88;5071680;28;20059;-71
2024/01/28 02:59:57;;;;;;;5.40;3.33;;;;;;;-0.23;100.00;94031.75;5071815;28;20808;-71
2024/01/28 03:02:24;;;;;;;6.57;2.97;;;;;;;-0.17;100.00;94038.81;5074041;28;20048;-71
2024/01/28 03:04:51;;;;;;;6.20;3.67;;;;;;;-0.05;100.00;94047.16;5070590;28;20048;-71
2024/01/28 03:07:18;;;;;;;8.43;4.13;;;;;;;-0.06;100.00;94053.09;5069892;28;20044;-71
2024/01/28 03:09:45;;;;;;;5.35;3.70;;;;;;;-0.15;100.00;94047.88;5071104;28;20497;-71
2024/01/28 03:12:11;;;;;;;8.13;3.72;;;;;;;0.01;100.00;94054.22;5071556;28;20056;-71
2024/01/28 03:14:38;;;;;;;7.03;3.28;;;;;;;-0.02;100.00;94052.75;5070558;28;20047;-72
2024/01/28 03:17:07;;;;;;;8.73;3.42;;;;;;;-0.12;100.00;94056.94;5068167;28;20423;-71
2024/01/28 03:19:34;;;;;;;8.13;3.97;;;;;;;-0.06;100.00;94058.16;5072230;28;20045;-72
2024/01/28 03:22:01;;;;;;;7.40;3.97;;;;;;;-0.05;100.00;94064.81;5070214;28;20052;-71
2024/01/28 03:24:27;;;;;;;7.63;3.38;;;;;;;-0.25;100.00;94062.16;5076863;28;20051;-71
2024/01/28 03:26:54;;;;;;;6.50;3.50;;;;;;;-0.13;100.00;94065.44;5068599;28;20841;-71
2024/01/28 03:29:22;;;;;;;6.80;3.95;;;;;;;0.05;100.00;94065.66;5068480;28;20041;-71
2024/01/28 03:31:49;;;;;;;6.95;3.30;;;;;;;-0.15;100.00;94064.75;5068536;28;20051;-71
2024/01/28 03:34:17;;;;;;;6.18;3.50;;;;;;;-0.20;100.00;94070.16;5068648;28;20051;-71
2024/01/28 03:36:44;;;;;;;9.88;3.92;;;;;;;-0.14;100.00;94074.72;5072192;28;20048;-71
2024/01/28 03:39:14;;;;;;;4.90;3.45;;;;;;;-0.24;100.00;94073.84;5071144;28;20048;-71
2024/01/28 03:41:40;;;;;;;7.20;3.15;;;;;;;-0.23;100.00;94069.63;5068324;28;20514;-72
2024/01/28 03:44:07;;;;;;;5.47;2.90;;;;;;;-0.20;100.00;94075.22;5068605;28;20531;-71
2024/01/28 03:46:34;;;;;;;6.78;3.50;;;;;;;-0.15;100.00;94079.91;5068174;28;20045;-70
2024/01/28 03:49:01;;;;;;;7.05;3.28;;;;;;;-0.39;100.00;94078.41;5070538;28;20310;-70
2024/01/28 03:51:30;;;;;;;5.30;3.17;;;;;;;-0.23;100.00;94075.44;5078422;28;20047;-70
2024/01/28 03:53:57;;;;;;;5.70;3.22;;;;;;;-0.45;100.00;94072.13;5078527;28;20036;-71
2024/01/28 03:56:24;;;;;;;6.13;3.35;;;;;;;-0.41;100.00;94077.72;5077103;28;20448;-71
2024/01/28 03:58:51;;;;;;;6.30;3.50;;;;;;;-0.25;100.00;94082.34;5076315;28;20048;-70
2024/01/28 04:01:18;;;;;;;7.25;4.22;;;;;;;-0.44;100.00;94062.81;5078470;28;20049;-71
2024/01/28 04:03:45;;;;;;;7.32;3.72;;;;;;;-0.32;100.00;94089.59;5077867;28;20058;-71
2024/01/28 04:06:12;;;;;;;4.72;3.67;;;;;;;-0.59;100.00;94085.00;5074550;28;20044;-71
2024/01/28 04:08:41;;;;;;;7.47;3.50;;;;;;;-0.50;100.00;94093.59;5075060;28;20051;-71
2024/01/28 04:11:08;;;;;;;7.85;3.38;;;;;;;-0.58;100.00;94100.03;5074006;28;20080;-71
2024/01/28 04:13:34;;;;;;;9.15;4.30;;;;;;;-0.64;100.00;94110.59;5073400;28;20148;-71
2024/01/28 04:16:01;;;;;;;6.32;3.08;;;;;;;-0.75;100.00;94115.69;5075985;28;20062;-70
2024/01/28 04:18:28;;;;;;;6.60;3.40;;;;;;;-0.66;100.00;94088.94;5074849;28;20059;-70
2024/01/28 04:20:55;;;;;;;10.93;3.92;;;;;;;-0.61;100.00;94110.34;5076775;28;20139;-71
2024/01/28 04:23:22;;;;;;;6.05;3.45;;;;;;;-0.60;100.00;94117.00;5076695;28;20071;-71
2024/01/28 04:25:50;;;;;;;6.72;4.25;;;;;;;-0.37;100.00;94113.63;5076999;28;20048;-71
2024/01/28 04:28:17;;;;;;;5.63;3.15;;;;;;;-0.69;100.00;94117.72;5073453;28;20685;-70
2024/01/28 04:30:44;;;;;;;5.70;3.35;;;;;;;-0.57;100.00;94123.53;5074548;28;20074;-70
2024/01/28 04:33:12;;;;;;;5.10;3.40;;;;;;;-0.60;100.00;94122.03;5073907;28;20414;-70
2024/01/28 04:35:39;;;;;;;7.65;3.15;;;;;;;-0.57;100.00;94124.34;5072294;28;20044;-70
2024/01/28 04:38:05;;;;;;;6.63;3.10;;;;;;;-0.51;100.00;94124.78;5081880;28;20531;-70
2024/01/28 04:40:32;;;;;;;7.30;4.22;;;;;;;-0.51;100.00;94129.84;5078349;28;20075;-70
2024/01/28 04:43:01;;;;;;;11.38;4.32;;;;;;;-0.44;100.00;94126.72;5070085;28;20048;-70
2024/01/28 04:45:28;;;;;;;9.13;6.35;;;;;;;-0.28;100.00;94130.56;5077847;28;20119;-71
2024/01/28 04:47:54;;;;;;;20.23;11.77;;;;;;;-0.20;100.00;94132.47;5078383;28;20044;-71
2024/01/28 04:50:21;;;;;;;9.00;6.43;;;;;;;-0.03;100.00;94134.50;5076071;28;20049;-69
2024/01/28 04:52:48;;;;;;;9.50;6.40;;;;;;;0.05;100.00;94130.56;5072552;28;20056;-68
2024/01/28 04:55:15;;;;;;;9.43;4.80;;;;;;;-0.09;100.00;94122.34;5078637;28;20055;-68
2024/01/28 04:57:42;;;;;;;9.32;4.72;;;;;;;-0.01;100.00;94136.88;5078790;28;20044;-68
2024/01/28 05:00:12;;;;;;;8.45;4.25;;;;;;;-0.15;100.00;94136.28;5073873;28;20508;-68
2024/01/28 05:02:39;;;;;;;10.50;7.35;;;;;;;-0.18;100.00;94133.19;5071720;28;20128;-69
2024/01/28 05:05:07;;;;;;;12.05;7.30;;;;;;;-0.24;100.00;94138.72;5070795;28;20063;-68
2024/01/28 05:07:34;;;;;;;13.77;7.97;;;;;;;-0.19;100.00;94142.47;5080304;28;20043;-68
2024/01/28 05:10:01;;;;;;;11.43;8.07;;;;;;;-0.38;100.00;94127.19;5073764;28;20048;-68
2024/01/28 05:12:28;;;;;;;15.57;8.15;;;;;;;-0.25;100.00;94132.84;5074625;28;20106;-72
2024/01/28 05:14:55;;;;;;;8.82;6.10;;;;;;;-0.35;100.00;94137.84;5073655;28;20048;-71
2024/01/28 05:17:23;;;;;;;7.68;5.65;;;;;;;-0.44;100.00;94124.19;5074798;28;20053;-71
2024/01/28 05:19:50;;;;;;;8.27;6.03;;;;;;;-0.36;100.00;94140.47;5072190;28;20106;-71
2024/01/28 05:22:19;;;;;;;11.43;7.63;;;;;;;-0.18;100.00;94146.59;5072635;28;20045;-69
2024/01/28 05:24:49;;;;;;;17.85;9.25;;;;;;;-0.14;100.00;94147.16;5078556;28;20043;-69
2024/01/28 05:27:16;;;;;;;10.98;7.30;;;;;;;-0.07;100.00;94148.28;5075174;28;20044;-69
2024/01/28 05:29:43;;;;;;;11.32;6.88;;;;;;;0.04;100.00;94154.22;5073684;28;20044;-69
2024/01/28 05:32:10;;;;;;;9.35;6.43;;;;;;;0.02;100.00;94125.75;5073999;28;20084;-69
2024/01/28 05:34:38;;;;;;;10.02;5.32;;;;;;;0.18;98.32;94161.50;5070092;28;20053;-69
2024/01/28 05:37:05;;;;;;;9.93;6.07;;;;;;;0.26;98.25;94173.53;5077074;28;20052;-69
2024/01/28 05:39:32;;;;;;;10.38;6.40;;;;;;;0.32;98.70;94173.03;5069983;28;20514;-69
2024/01/28 05:41:59;;;;;;;15.88;8.90;;;;;;;0.28;98.38;94171.69;5073941;28;20055;-69
2024/01/28 05:44:26;;;;;;;19.65;11.60;;;;;;;0.36;98.65;94187.03;5070119;28;20049;-69
2024/01/28 05:46:53;;;;;;;23.98;12.55;;;;;;;0.39;96.71;94191.03;5072547;28;20408;-69
2024/01/28 05:49:20;;;;;;;26.75;15.15;;;;;;;0.28;98.48;94186.84;5069998;28;20051;-69
2024/01/28 05:51:48;;;;;;;47.88;27.85;;;;;;;0.37;98.08;94203.00;5070154;28;20048;-69
2024/01/28 05:54:15;;;;;;;40.63;21.33;;;;;;;0.24;98.51;94201.44;5069235;28;20062;-69
2024/01/28 05:56:42;;;;;;;32.35;19.08;;;;;;;0.12;99.39;94210.00;5078062;28;20488;-69
2024/01/28 05:59:09;;;;;;;27.63;16.55;;;;;;;0.20;98.90;94215.25;5073065;28;20087;-69
2024/01/28 06:01:36;;;;;;;18.83;11.00;;;;;;;0.26;98.09;94211.44;5072647;28;20046;-69
2024/01/28 06:04:03;;;;;;;20.67;13.73;;;;;;;0.34;98.37;94211.63;5070818;28;20570;-69
2024/01/28 06:06:30;;;;;;;19.05;11.45;;;;;;;0.35;97.61;94215.75;5075788;28;20094;-69
2024/01/28 06:08:58;;;;;;;20.25;11.55;;;;;;;0.39;97.31;94212.06;5070165;28;20055;-69
2024/01/28 06:11:26;;;;;;;21.67;11.85;;;;;;;0.40;97.52;94212.88;5073968;28;20062;-69
2024/01/28 06:13:53;;;;;;;50.92;24.60;;;;;;;0.36;97.72;94203.91;5069330;28;20047;-69
2024/01/28 06:16:20;;;;;;;35.03;18.35;;;;;;;0.34;97.95;94210.81;5068784;28;20045;-69
2024/01/28 06:18:47;;;;;;;32.78;16.23;;;;;;;0.36;98.41;94211.50;5080077;28;20048;-69
2024/01/28 06:21:20;;;;;;;31.48;16.02;;;;;;;0.47;98.81;94210.66;5070420;28;20051;-69
2024/01/28 06:23:47;;;;;;;53.78;28.67;;;;;;;0.45;98.36;94215.81;5073487;28;20579;-69
2024/01/28 06:26:17;;;;;;;49.20;26.90;;;;;;;0.49;98.93;94216.38;5069858;28;20048;-69
2024/01/28 06:28:45;;;;;;;174.43;86.75;;;;;;;0.47;98.85;94215.72;5073432;28;20049;-69
2024/01/28 06:31:12;;;;;;;98.65;49.35;;;;;;;0.48;98.16;94213.06;5071463;28;20062;-69
2024/01/28 06:33:39;;;;;;;88.60;47.78;;;;;;;0.48;98.47;94217.31;5071525;28;20044;-69
2024/01/28 06:36:07;;;;;;;70.68;39.05;;;;;;;0.59;98.76;94221.50;5072725;28;20138;-69
2024/01/28 06:38:34;;;;;;;62.53;34.90;;;;;;;0.59;99.59;94224.84;5069499;28;20058;-69
2024/01/28 06:41:01;;;;;;;43.55;29.75;;;;;;;0.62;99.20;94234.72;5069356;28;20515;-69
2024/01/28 06:43:30;;;;;;;39.70;25.50;;;;;;;0.64;98.36;94220.22;5069319;28;20063;-69
2024/01/28 06:45:57;;;;;;;31.95;20.67;;;;;;;0.64;98.61;94240.44;5070744;28;20082;-70
2024/01/28 06:48:23;;;;;;;26.77;18.80;;;;;;;0.56;98.00;94240.28;5075729;28;20140;-69
2024/01/28 06:50:52;;;;;;;20.73;13.48;;;;;;;0.58;98.22;94245.19;5070838;28;20546;-69
2024/01/28 06:53:19;;;;;;;19.38;12.73;;;;;;;0.65;98.93;94248.84;5069998;28;20045;-71
2024/01/28 06:55:46;;;;;;;23.10;12.95;;;;;;;0.71;99.74;94243.28;5074400;28;20048;-71
2024/01/28 06:58:13;;;;;;;51.13;25.05;;;;;;;0.85;99.61;94251.47;5074491;28;20044;-70
2024/01/28 07:00:41;;;;;;;37.47;19.02;;;;;;;0.89;100.00;94246.03;5075104;28;20040;-70
2024/01/28 07:03:09;;;;;;;46.30;22.05;;;;;;;0.92;100.00;94243.28;5072128;28;21243;-70
2024/01/28 07:05:36;;;;;;;35.40;19.40;;;;;;;1.02;100.00;94253.44;5070333;28;20085;-70
2024/01/28 07:08:05;;;;;;;98.15;39.03;;;;;;;1.15;99.32;94257.53;5070256;28;20055;-70
2024/01/28 07:10:32;;;;;;;19.48;10.57;;;;;;;1.20;95.91;94253.69;5070639;28;20173;-71
2024/01/28 07:12:59;;;;;;;43.70;20.08;;;;;;;1.24;96.81;94253.44;5069617;28;20158;-71
2024/01/28 07:15:26;;;;;;;27.33;12.68;;;;;;;1.35;96.29;94255.88;5071226;28;20505;-70
2024/01/28 07:17:54;;;;;;;27.05;14.18;;;;;;;1.38;95.98;94263.22;5073959;28;20051;-70
2024/01/28 07:20:21;;;;;;;35.70;19.65;;;;;;;1.43;96.75;94267.91;5070850;28;20048;-70
2024/01/28 07:22:48;;;;;;;46.22;25.98;;;;;;;1.45;97.34;94264.28;5075310;28;20054;-70
2024/01/28 07:25:15;;;;;;;44.80;24.00;;;;;;;1.67;96.37;94266.78;5074277;28;20053;-70
2024/01/28 07:27:42;;;;;;;63.80;36.35;;;;;;;1.62;96.11;94266.38;5072504;28;20044;-70
2024/01/28 07:30:09;;;;;;;48.58;30.23;;;;;;;1.30;96.07;94207.38;5075600;28;20416;-70
2024/01/28 07:32:37;;;;;;;156.57;66.13;;;;;;;1.56;96.42;94253.28;5071908;28;20497;-70
2024/01/28 07:35:08;;;;;;;61.72;38.60;;;;;;;1.53;96.77;94230.75;5072320;28;20063;-70
2024/01/28 07:37:38;;;;;;;77.10;43.63;;;;;;;1.82;96.12;94259.63;5074533;28;20044;-71
2024/01/28 07:40:07;;;;;;;96.72;54.05;;;;;;;1.65;96.06;94243.31;5078024;28;20132;-70
2024/01/28 07:42:33;;;;;;;65.80;38.33;;;;;;;1.50;94.80;94223.41;5072724;28;20047;-70
2024/01/28 07:45:00;;;;;;;48.78;26.95;;;;;;;1.88;93.55;94276.84;5069667;28;20080;-70
2024/01/28 07:47:27;;;;;;;33.45;19.50;;;;;;;1.88;93.10;94276.84;5078074;28;20044;-71
2024/01/28 07:49:54;;;;;;;23.98;11.77;;;;;;;1.48;90.47;94283.50;5075047;28;20048;-71
2024/01/28 07:52:22;;;;;;;24.85;12.90;;;;;;;1.32;91.59;94279.72;5071048;28;20051;-71
2024/01/28 07:54:49;;;;;;;26.38;14.77;;;;;;;1.49;91.59;94280.06;5070830;28;20049;-70
2024/01/28 07:57:16;;;;;;;18.45;10.00;;;;;;;1.37;90.36;94293.72;5072270;28;20045;-70
2024/01/28 07:59:43;;;;;;;22.30;12.75;;;;;;;1.32;91.85;94289.84;5070614;28;20052;-70
2024/01/28 08:02:10;;;;;;;14.40;8.82;;;;;;;1.40;92.21;94258.03;5070375;28;20045;-70
2024/01/28 08:04:38;;;;;;;11.88;5.50;;;;;;;1.62;89.80;94294.22;5069289;28;20036;-71
2024/01/28 08:07:05;;;;;;;28.40;15.40;;;;;;;1.79;91.58;94296.16;5070150;28;20052;-70
2024/01/28 08:09:33;;;;;;;15.68;7.60;;;;;;;1.81;90.68;94288.44;5068436;28;20054;-70
2024/01/28 08:12:00;;;;;;;29.50;16.42;;;;;;;1.98;92.24;94281.94;5070593;28;20052;-70
2024/01/28 08:14:27;;;;;;;16.17;6.95;;;;;;;1.74;88.36;94285.59;5072991;28;20047;-70
2024/01/28 08:16:54;;;;;;;10.55;5.20;;;;;;;1.73;89.42;94284.78;5073038;28;20051;-70
2024/01/28 08:19:21;;;;;;;12.75;6.95;;;;;;;1.87;90.04;94290.44;5075815;28;20513;-70
2024/01/28 08:21:49;;;;;;;9.90;6.95;;;;;;;2.16;88.96;94296.53;5073596;28;20047;-70
2024/01/28 08:24:16;;;;;;;9.70;6.57;;;;;;;1.99;87.53;94302.06;5070536;28;20041;-70
2024/01/28 08:26:44;;;;;;;17.15;8.68;;;;;;;2.02;87.00;94303.56;5077300;28;20050;-70
2024/01/28 08:29:11;;;;;;;9.60;6.30;;;;;;;2.16;86.84;94296.53;5067245;28;20047;-70
2024/01/28 08:31:38;;;;;;;10.98;5.90;;;;;;;2.27;87.09;94302.28;5067196;28;20041;-70
2024/01/28 08:34:06;;;;;;;10.25;5.18;;;;;;;2.32;85.43;94309.47;5073191;28;20045;-70
2024/01/28 08:36:33;;;;;;;8.10;4.85;;;;;;;2.42;83.67;94306.97;5067715;28;20138;-70
2024/01/28 08:39:00;;;;;;;10.00;5.90;;;;;;;2.51;85.52;94318.06;5077008;28;20068;-70
2024/01/28 08:41:27;;;;;;;16.05;7.65;;;;;;;2.65;86.45;94312.56;5078056;28;20044;-70
2024/01/28 08:43:55;;;;;;;20.48;8.43;;;;;;;2.39;85.01;94304.69;5073470;28;20048;-70
2024/01/28 08:46:22;;;;;;;15.00;7.35;;;;;;;2.51;85.87;94305.38;5072564;28;20056;-69
2024/01/28 08:48:49;;;;;;;12.23;5.13;;;;;;;2.67;84.40;94322.59;5077193;28;20040;-69
2024/01/28 08:51:16;;;;;;;11.38;5.47;;;;;;;2.57;85.53;94320.06;5078147;28;20044;-69
2024/01/28 08:53:43;;;;;;;6.65;4.00;;;;;;;2.03;86.87;94310.22;5076585;28;20844;-69
2024/01/28 08:56:10;;;;;;;11.75;4.80;;;;;;;1.90;86.60;94319.78;5075380;28;20111;-69
2024/01/28 08:58:37;;;;;;;34.00;13.13;;;;;;;2.13;86.66;94323.72;5076576;28;20045;-69
2024/01/28 09:01:06;;;;;;;10.60;4.38;;;;;;;2.24;86.90;94322.81;5074597;28;20047;-70
2024/01/28 09:03:33;;;;;;;12.23;6.05;;;;;;;2.45;87.29;94328.72;5075835;28;20062;-69
2024/01/28 09:06:02;;;;;;;11.45;5.20;;;;;;;2.50;85.07;94324.06;5075397;28;20053;-69
2024/01/28 09:08:30;;;;;;;22.92;12.77;;;;;;;2.99;84.74;94324.06;5073650;28;20128;-69
2024/01/28 09:10:57;;;;;;;36.65;24.45;;;;;;;2.46;84.67;94332.88;5079418;28;20131;-69
2024/01/28 09:13:24;;;;;;;10.07;6.97;;;;;;;2.50;85.50;94335.00;5072431;28;20539;-69
2024/01/28 09:15:51;;;;;;;11.57;6.25;;;;;;;2.39;85.51;94337.66;5071886;28;20060;-69
2024/01/28 09:18:20;;;;;;;117.65;63.60;;;;;;;2.50;85.47;94331.69;5071900;28;20062;-69
2024/01/28 09:20:47;;;;;;;19.27;10.18;;;;;;;2.56;85.46;94333.69;5077535;28;20142;-69
2024/01/28 09:23:14;;;;;;;17.67;8.52;;;;;;;2.45;85.79;94321.91;5072852;28;20053;-69
2024/01/28 09:25:41;;;;;;;280.75;132.20;;;;;;;2.45;84.45;94332.06;5071856;28;20044;-69
2024/01/28 09:28:08;;;;;;;46.70;21.58;;;;;;;2.64;84.92;94327.94;5072958;28;20067;-69
2024/01/28 09:30:35;;;;;;;21.23;10.43;;;;;;;2.76;85.08;94337.03;5072677;28;20075;-69
2024/01/28 09:33:03;;;;;;;11.38;7.07;;;;;;;2.94;85.98;94329.56;5079637;28;20095;-69
2024/01/28 09:35:31;;;;;;;12.27;6.50;;;;;;;2.76;83.59;94309.13;5075328;28;20044;-70
2024/01/28 09:37:58;;;;;;;12.30;7.25;;;;;;;2.99;83.14;94336.75;5080683;28;20048;-69
2024/01/28 09:40:26;;;;;;;13.00;6.63;;;;;;;2.92;83.16;94331.41;5072719;28;20045;-70
2024/01/28 09:43:00;;;;;;;15.07;9.25;;;;;;;2.75;82.92;94337.16;5071419;28;20080;-70
2024/01/28 09:45:27;;;;;;;19.38;9.48;;;;;;;2.54;83.43;94333.81;5073108;28;20470;-70
2024/01/28 09:47:55;;;;;;;16.17;7.45;;;;;;;2.49;85.14;94310.56;5070058;28;20044;-69
2024/01/28 09:50:22;;;;;;;16.25;8.02;;;;;;;2.64;83.67;94326.19;5078412;28;20051;-69
2024/01/28 09:52:51;;;;;;;9.85;5.25;;;;;;;2.30;87.97;94323.25;5069652;28;20071;-69
2024/01/28 09:55:18;;;;;;;10.90;6.97;;;;;;;2.16;87.04;94322.66;5081182;28;20523;-69
2024/01/28 09:57:46;;;;;;;17.45;7.93;;;;;;;1.92;88.12;94302.72;5070115;28;20052;-69
2024/01/28 10:00:14;;;;;;;17.38;9.77;;;;;;;1.89;89.34;94323.25;5070159;28;20054;-69
2024/01/28 10:02:41;;;;;;;29.67;13.43;;;;;;;1.95;89.62;94308.31;5079357;28;20054;-70
2024/01/28 10:05:10;;;;;;;14.63;8.55;;;;;;;2.19;89.60;94312.28;5073085;28;20071;-69
2024/01/28 10:07:45;;;;;;;4.22;2.70;;;;;;;1.87;89.02;94320.84;5075345;28;20048;-69
2024/01/28 10:10:13;;;;;;;6.28;3.70;;;;;;;2.03;88.20;94312.75;5068862;28;20139;-69
2024/01/28 10:12:40;;;;;;;24.27;11.60;;;;;;;1.95;89.93;94315.94;5074718;28;20416;-69
2024/01/28 10:15:16;;;;;;;12.43;7.38;;;;;;;1.77;90.02;94299.75;5070938;28;20510;-69
2024/01/28 10:17:47;;;;;;;16.05;8.70;;;;;;;1.73;90.04;94289.06;5073894;28;20044;-69
2024/01/28 10:20:15;;;;;;;10.15;5.30;;;;;;;1.73;90.55;94309.34;5069742;28;20053;-69
2024/01/28 10:22:42;;;;;;;9.82;6.13;;;;;;;1.83;91.84;94307.66;5071399;28;20048;-69
2024/01/28 10:25:15;;;;;;;7.03;4.32;;;;;;;1.91;91.33;94311.25;5075895;28;20045;-69
2024/01/28 10:27:42;;;;;;;5.20;3.40;;;;;;;1.72;90.49;94307.75;5071588;28;20087;-69
2024/01/28 10:30:11;;;;;;;6.53;3.60;;;;;;;1.88;91.63;94314.84;5082259;28;20149;-69
2024/01/28 10:32:38;;;;;;;9.20;4.15;;;;;;;1.71;89.80;94285.88;5072579;28;20040;-69
2024/01/28 10:35:08;;;;;;;6.75;4.20;;;;;;;1.98;90.54;94302.19;5069628;28;20527;-69
2024/01/28 10:37:35;;;;;;;12.43;6.75;;;;;;;1.63;91.55;94288.22;5069453;28;20044;-69
2024/01/28 10:40:05;;;;;;;10.32;5.75;;;;;;;1.75;89.93;94297.34;5069759;28;20413;-69
2024/01/28 10:42:37;;;;;;;6.85;4.18;;;;;;;1.86;90.73;94304.06;5072591;28;20048;-69
2024/01/28 10:45:07;;;;;;;6.97;4.63;;;;;;;1.88;90.88;94297.13;5069173;28;20591;-69
2024/01/28 10:47:36;;;;;;;6.82;4.70;;;;;;;1.86;91.88;94296.44;5071380;28;20055;-69
2024/01/28 10:50:09;;;;;;;10.25;8.25;;;;;;;1.93;91.94;94291.66;5075608;28;20053;-69
2024/01/28 10:52:37;;;;;;;12.40;6.38;;;;;;;2.08;92.26;94289.56;5069810;28;20048;-69
2024/01/28 10:55:05;;;;;;;7.30;3.88;;;;;;;1.98;91.25;94290.34;5075226;28;20084;-69
2024/01/28 10:57:34;;;;;;;4.68;3.00;;;;;;;1.76;91.54;94291.34;5068559;28;20049;-69
2024/01/28 11:00:03;;;;;;;6.13;3.20;;;;;;;1.70;92.61;94295.19;5069520;28;20492;-69
2024/01/28 11:02:31;;;;;;;6.72;3.42;;;;;;;1.69;92.50;94296.13;5073697;28;20917;-69
2024/01/28 11:04:58;;;;;;;5.47;3.30;;;;;;;1.78;91.96;94296.28;5072741;28;20050;-70
2024/01/28 11:07:26;;;;;;;5.15;3.58;;;;;;;1.80;92.76;94286.84;5075047;28;20848;-69
2024/01/28 11:09:53;;;;;;;6.53;3.83;;;;;;;1.84;93.55;94288.97;5069464;28;20045;-69
2024/01/28 11:12:21;;;;;;;7.47;4.38;;;;;;;1.94;95.36;94290.75;5071749;28;20044;-69
2024/01/28 11:14:52;;;;;;;6.55;3.80;;;;;;;1.95;94.98;94292.34;5073844;28;20044;-69
2024/01/28 11:17:19;;;;;;;11.27;5.80;;;;;;;2.02;95.13;94288.34;5068813;28;20103;-70
2024/01/28 11:19:46;;;;;;;9.10;4.93;;;;;;;1.89;95.18;94273.38;5075417;28;20044;-70
2024/01/28 11:22:16;;;;;;;10.50;5.57;;;;;;;2.29;95.52;94281.88;5073584;28;20049;-69
2024/01/28 11:24:52;;;;;;;11.43;5.30;;;;;;;2.40;95.15;94279.19;5071109;28;20037;-69
2024/01/28 11:27:19;;;;;;;9.18;4.72;;;;;;;2.34;94.85;94281.44;5072509;28;20068;-70
2024/01/28 11:29:47;;;;;;;6.60;4.70;;;;;;;2.33;94.19;94282.41;5075485;28;20063;-69